Desert Springs, Nevada Weather observations

Data are for 10 minute period ending at time listed.
 Day   Time    Ave.   Ave.  Ave.  Vector   Max.   Total    Solar   
  of    of     Air    Rel.  Wind   Wind    Wind  Precip.   Rad.    
Year   Day     Temp.  Hum.  Speed  Dir.    Gust                    
2017   (PST)    F      %     mph   deg.    mph     in.     W/m2    
------------------------------------------------------------------- 
  35   22:00   40.0    61   11.0   238     30.0    5.57       0  
  35   23:00   38.0    67   10.0   221     27.0    5.57       0  
  36    0:00   37.0    70    6.0   219     20.0    5.57       0  
  36    1:00   37.0    67   13.0   284     21.0    5.57       0  
  36    2:00   37.0    65    6.0   232     19.0    5.57       0  
  36    3:00   36.0    67    1.0   184      9.0    5.57       0  
  36    4:00   36.0    65    5.0   123      9.0    5.57       0  
  36    5:00   35.0    69    4.0    52      8.0    5.57       0  
  36    6:00   36.0    63    2.0   240      6.0    5.57       0  
  36    7:00   36.0    60    8.0   129      9.0    5.57       0  
  36    8:00   37.0    59    3.0   200      8.0    5.57      15  
  36    9:00   40.0    60    1.0    95      8.0    5.57     162  
  36   10:00   41.0    64    2.0   282      9.0    5.57     260  
  36   11:00   48.0    42    5.0   218     12.0    5.57     421  
  36   12:00   51.0    38   10.0   124     18.0    5.57     647  
  36   13:00   53.0    36   16.0   177     25.0    5.57     708  
  36   14:00   53.0    36   11.0   199     27.0    5.57     538  
  36   15:00   52.0    35   15.0   239     24.0    5.57     306  
  36   16:00   54.0    27   16.0   203     28.0    5.57     359  
  36   17:00   51.0    29   13.0   208     29.0    5.57     246  
  36   18:00   44.0    34    9.0   226     26.0    5.57      26  
  36   19:00   42.0    34    5.0   282     14.0    5.57       0  
  36   20:00   39.0    56   20.0   231     42.0    5.57       0  
  36   21:00   38.0    67   26.0   178     43.0    5.57       0  

Return to Desert Springs, Nevada graphs page.


Western Regional Climate Center,wrcc@dri.edu